SLAM7: Spring River at La Russell, MO

                                SHEF ID:       SLAM7     Spring River at La Russell, MO
STATION TYPE:

STAGE RIV-FLOW
ft cfs
Ccp-Rev Ccp-Rev
(America/Chicago)
06/26 00:00 2.12 222
06/26 01:00 2.13 225
06/26 02:00 2.13 225
06/26 03:00 2.12 222
06/26 04:00 2.07 209
06/26 05:00 2.16 233
06/26 06:00 2.24 255
06/26 07:00 2.29 269
06/26 08:00 2.31 274
06/26 09:00 2.37 292
06/26 10:00 2.46 319
06/26 11:00 2.44 313
06/26 12:00 2.48 325
06/26 13:00 2.82 440
06/26 14:00 3.15 567
06/26 15:00 3.24 604
06/26 16:00 3.20 587
06/26 17:00 3.11 551
06/26 18:00 3.01 511
06/26 19:00 2.92 477
06/26 20:00 2.84 447
06/26 21:00 2.79 429
06/26 22:00 2.74 412
06/26 23:00 2.70 398
Data processed at Sat 27Jun2026 04:40 GMT

NOTICE: If you are parsing this page

Please convert to using our Data API. Starting early 2026 we will be migrating to: https://water.usace.army.mil with modern pages rendered in JavaScript. When this migration completes you will no longer be able to scrape this page! CWMSDataAPI (CDA)

Timeseries IDs (TSIDs)

TSIDs used from left to right in the data table
LARU.Stage.Inst.1Hour.0.Ccp-Rev
LARU.Flow.Inst.1Hour.0.Ccp-Rev

                            

All information presented herein is the property of the government of the United States of America and may be revised or deleted at any time without prior notice. Dissemination of this information without the expressed written consent of the Public Affairs Office, Tulsa District U.S. Army Corps of Engineers is strictly prohibited. These data are gathered electronically and, as presented, have NOT undergone any form of quality control. These data are NOT guaranteed to be valid or correct.